createdAt,value
2023-11-03T00:01:31.334Z,10.12
2023-11-03T00:03:59.540Z,10.12
2023-11-03T00:06:27.460Z,10.12
2023-11-03T00:08:56.578Z,10.12
2023-11-03T00:11:24.200Z,10.11
2023-11-03T00:13:51.907Z,10.09
2023-11-03T00:16:19.520Z,10.08
2023-11-03T00:18:47.155Z,10.05
2023-11-03T00:21:14.810Z,10.01
2023-11-03T00:23:43.802Z,9.98
2023-11-03T00:26:12.965Z,9.97
2023-11-03T00:28:42.208Z,9.96
2023-11-03T00:31:09.912Z,9.93
2023-11-03T00:33:37.699Z,9.93
2023-11-03T00:36:06.027Z,9.93
2023-11-03T00:38:33.835Z,9.95
2023-11-03T00:41:01.499Z,9.99
2023-11-03T00:43:30.682Z,10.02
2023-11-03T00:45:58.408Z,10.05
2023-11-03T00:48:27.735Z,10.05
2023-11-03T00:50:55.502Z,10.08
2023-11-03T00:53:24.229Z,10.08
2023-11-03T00:55:52.244Z,10.08
2023-11-03T00:58:20.249Z,10.10
2023-11-03T01:00:49.645Z,10.09
2023-11-03T01:03:19.095Z,10.06
2023-11-03T01:05:46.929Z,10.04
2023-11-03T01:08:14.587Z,10.02
2023-11-03T01:10:42.313Z,10.00
2023-11-03T01:13:15.136Z,10.00
2023-11-03T01:15:44.605Z,9.98
2023-11-03T01:18:13.901Z,9.99
2023-11-03T01:20:41.619Z,9.99
2023-11-03T01:23:09.849Z,10.02
2023-11-03T01:25:37.474Z,10.03
2023-11-03T01:28:07.091Z,10.03
2023-11-03T01:30:34.815Z,10.08
2023-11-03T01:33:04.738Z,10.07
2023-11-03T01:35:34.896Z,10.11
2023-11-03T01:38:02.517Z,10.12
2023-11-03T01:40:31.101Z,10.13
2023-11-03T01:42:58.987Z,10.12
2023-11-03T01:45:27.458Z,10.13
2023-11-03T01:47:55.213Z,10.12
2023-11-03T01:50:24.468Z,10.10
2023-11-03T01:52:54.200Z,10.05
2023-11-03T01:55:22.400Z,10.02
2023-11-03T01:57:50.774Z,9.99
2023-11-03T02:00:20.180Z,9.96
2023-11-03T02:02:49.142Z,9.94
2023-11-03T02:05:16.993Z,9.88
2023-11-03T02:07:45.400Z,9.86
2023-11-03T02:10:14.538Z,9.80
2023-11-03T02:12:42.241Z,9.74
2023-11-03T02:15:10.691Z,9.71
2023-11-03T02:17:40.020Z,9.66
2023-11-03T02:20:09.148Z,9.61
2023-11-03T02:22:36.884Z,9.57
2023-11-03T02:25:06.669Z,9.53
2023-11-03T02:27:34.404Z,9.47
2023-11-03T02:30:02.176Z,9.43
2023-11-03T02:32:29.861Z,9.39
2023-11-03T02:34:57.672Z,9.39
2023-11-03T02:37:25.670Z,9.35
2023-11-03T02:39:53.453Z,9.29
2023-11-03T02:42:22.815Z,9.28
2023-11-03T02:44:51.105Z,9.26
2023-11-03T02:47:18.728Z,9.25
2023-11-03T02:49:46.317Z,9.22
2023-11-03T02:52:13.908Z,9.21
2023-11-03T02:54:41.572Z,9.19
2023-11-03T02:57:09.216Z,9.20
2023-11-03T02:59:38.123Z,9.19
2023-11-03T03:02:06.985Z,9.18
2023-11-03T03:04:34.688Z,9.16
2023-11-03T03:07:02.569Z,9.13
2023-11-03T03:09:30.251Z,9.12
2023-11-03T03:11:58.601Z,9.06
2023-11-03T03:14:26.244Z,9.05
2023-11-03T03:16:55.186Z,9.03
2023-11-03T03:19:22.931Z,9.04
2023-11-03T03:21:50.585Z,9.00
2023-11-03T03:24:18.387Z,9.01
2023-11-03T03:26:45.991Z,9.00
2023-11-03T03:29:14.267Z,9.01
2023-11-03T03:31:41.890Z,9.01
2023-11-03T03:34:10.979Z,9.03
2023-11-03T03:36:38.863Z,9.06
2023-11-03T03:39:06.555Z,9.09
2023-11-03T03:41:34.127Z,9.14
2023-11-03T03:44:01.880Z,9.15
2023-11-03T03:46:29.497Z,9.21
2023-11-03T03:48:57.913Z,9.23
2023-11-03T03:51:26.864Z,9.28
2023-11-03T03:53:54.550Z,9.33
2023-11-03T03:56:26.720Z,9.37
2023-11-03T03:58:54.481Z,9.41
2023-11-03T04:01:22.967Z,9.43
2023-11-03T04:03:50.823Z,9.48
2023-11-03T04:06:18.596Z,9.50
2023-11-03T04:08:47.590Z,9.54
2023-11-03T04:11:15.462Z,9.56
2023-11-03T04:13:43.270Z,9.60
2023-11-03T04:16:11.935Z,9.62
2023-11-03T04:18:42.207Z,9.65
2023-11-03T04:21:10.404Z,9.69
2023-11-03T04:23:37.980Z,9.70
2023-11-03T04:26:07.311Z,9.74
2023-11-03T04:28:36.616Z,9.74
2023-11-03T04:31:04.564Z,9.77
2023-11-03T04:33:32.310Z,9.76
2023-11-03T04:35:59.951Z,9.77
2023-11-03T04:38:27.579Z,9.74
2023-11-03T04:40:55.242Z,9.74
2023-11-03T04:43:24.435Z,9.70
2023-11-03T04:45:52.147Z,9.70
2023-11-03T04:48:20.601Z,9.70
2023-11-03T04:50:48.898Z,9.71
2023-11-03T04:53:16.460Z,9.72
2023-11-03T04:55:44.064Z,9.72
2023-11-03T04:58:12.069Z,9.71
2023-11-03T05:00:41.103Z,9.70
2023-11-03T05:03:08.880Z,9.71
2023-11-03T05:05:37.036Z,9.71
2023-11-03T05:08:05.148Z,9.68
2023-11-03T05:10:33.963Z,9.71
2023-11-03T05:13:02.147Z,9.73
2023-11-03T05:15:29.797Z,9.73
2023-11-03T05:17:59.783Z,9.77
2023-11-03T05:20:27.974Z,9.74
2023-11-03T05:22:55.844Z,9.75
2023-11-03T05:25:24.323Z,9.78
2023-11-03T05:27:52.134Z,9.77
2023-11-03T05:30:20.462Z,9.79
2023-11-03T05:32:48.597Z,9.72
2023-11-03T05:35:17.746Z,9.73
2023-11-03T05:37:45.850Z,9.73
2023-11-03T05:40:15.402Z,9.69
2023-11-03T05:42:43.336Z,9.69
2023-11-03T05:45:11.914Z,9.66
2023-11-03T05:47:39.637Z,9.68
2023-11-03T05:50:08.914Z,9.68
2023-11-03T05:52:38.044Z,9.65
2023-11-03T05:55:07.280Z,9.67
2023-11-03T05:57:34.988Z,9.64
2023-11-03T06:00:02.598Z,9.59
2023-11-03T06:02:30.274Z,9.59
2023-11-03T06:04:57.880Z,9.54
2023-11-03T06:07:25.576Z,9.56
2023-11-03T06:09:54.565Z,9.55
2023-11-03T06:12:22.197Z,9.56
2023-11-03T06:14:49.832Z,9.56
2023-11-03T06:17:17.458Z,9.59
2023-11-03T06:19:45.240Z,9.60
2023-11-03T06:22:13.070Z,9.61
2023-11-03T06:24:41.182Z,9.63
2023-11-03T06:27:10.637Z,9.64
2023-11-03T06:29:38.287Z,9.66
2023-11-03T06:32:06.951Z,9.64
2023-11-03T06:34:34.620Z,9.66
2023-11-03T06:37:02.346Z,9.68
2023-11-03T06:39:30.039Z,9.70
2023-11-03T06:41:57.624Z,9.68
2023-11-03T06:44:26.907Z,9.70
2023-11-03T06:46:54.584Z,9.68
2023-11-03T06:49:22.358Z,9.71
2023-11-03T06:51:50.005Z,9.72
2023-11-03T06:54:17.641Z,9.74
2023-11-03T06:56:46.129Z,9.77
2023-11-03T06:59:14.575Z,9.77
2023-11-03T07:01:43.573Z,9.79
2023-11-03T07:04:11.214Z,9.78
2023-11-03T07:06:38.879Z,9.80
2023-11-03T07:09:06.618Z,9.85
2023-11-03T07:11:36.049Z,9.84
2023-11-03T07:14:03.736Z,9.86
2023-11-03T07:16:31.345Z,9.86
2023-11-03T07:19:00.314Z,9.86
2023-11-03T07:21:27.981Z,9.89
2023-11-03T07:23:55.598Z,9.89
2023-11-03T07:26:25.021Z,9.90
2023-11-03T07:28:52.621Z,9.90
2023-11-03T07:31:20.231Z,9.91
2023-11-03T07:33:48.099Z,9.92
2023-11-03T07:36:17.067Z,9.91
2023-11-03T07:38:44.684Z,9.93
2023-11-03T07:41:12.349Z,9.97
2023-11-03T07:43:40.019Z,10.00
2023-11-03T07:46:08.001Z,9.98
2023-11-03T07:48:35.759Z,9.98
2023-11-03T07:51:04.245Z,10.02
2023-11-03T07:53:33.336Z,10.01
2023-11-03T07:56:01.329Z,10.03
2023-11-03T07:58:29.161Z,10.08
2023-11-03T08:00:57.361Z,10.08
2023-11-03T08:03:26.113Z,10.13
2023-11-03T08:05:53.897Z,10.14
2023-11-03T08:08:21.538Z,10.19
2023-11-03T08:10:51.496Z,10.19
2023-11-03T08:13:19.208Z,10.19
2023-11-03T08:15:48.108Z,10.17
2023-11-03T08:18:15.733Z,10.22
2023-11-03T08:20:43.455Z,10.19
2023-11-03T08:23:11.606Z,10.18
2023-11-03T08:25:39.917Z,10.21
2023-11-03T08:28:10.998Z,10.22
2023-11-03T08:30:40.249Z,10.24
2023-11-03T08:33:08.992Z,10.25
2023-11-03T08:35:37.416Z,10.27
2023-11-03T08:38:06.352Z,10.30
2023-11-03T08:40:34.007Z,10.32
2023-11-03T08:43:02.282Z,10.34
2023-11-03T08:45:31.532Z,10.40
2023-11-03T08:47:59.385Z,10.43
2023-11-03T08:50:27.157Z,10.44
2023-11-03T08:52:55.170Z,10.47
2023-11-03T08:55:23.750Z,10.48
2023-11-03T08:57:51.604Z,10.45
2023-11-03T09:00:20.863Z,10.47
2023-11-03T09:02:50.235Z,10.48
2023-11-03T09:05:18.250Z,10.51
2023-11-03T09:07:47.217Z,10.59
2023-11-03T09:10:15.072Z,10.65
2023-11-03T09:12:43.784Z,10.67
2023-11-03T09:15:12.746Z,10.64
2023-11-03T09:17:46.854Z,10.67
2023-11-03T09:20:19.293Z,10.82
2023-11-03T09:22:47.373Z,10.94
2023-11-03T09:25:15.156Z,11.12
2023-11-03T09:27:42.908Z,11.27
2023-11-03T09:30:12.147Z,11.29
2023-11-03T09:32:40.087Z,11.32
2023-11-03T09:35:09.121Z,11.44
2023-11-03T09:37:39.051Z,11.40
2023-11-03T09:40:08.757Z,11.47
2023-11-03T09:42:38.147Z,11.49
2023-11-03T09:45:12.974Z,11.56
2023-11-03T09:47:40.908Z,11.59
2023-11-03T09:50:12.043Z,11.50
2023-11-03T09:52:47.239Z,11.52
2023-11-03T09:55:20.104Z,11.53
2023-11-03T09:57:50.961Z,11.48
2023-11-03T10:00:23.419Z,11.42
2023-11-03T10:02:51.249Z,11.42
2023-11-03T10:05:20.239Z,11.44
2023-11-03T10:08:01.790Z,11.35
2023-11-03T10:10:30.312Z,11.35
2023-11-03T10:12:58.702Z,11.34
2023-11-03T10:15:28.022Z,11.41
2023-11-03T10:17:56.183Z,11.38
2023-11-03T10:20:26.153Z,11.38
2023-11-03T10:22:56.676Z,11.50
2023-11-03T10:25:27.587Z,11.54
2023-11-03T10:27:56.831Z,11.59
2023-11-03T10:30:26.838Z,11.60
2023-11-03T10:32:55.978Z,11.61
2023-11-03T10:35:24.076Z,11.64
2023-11-03T10:37:55.242Z,11.60
2023-11-03T10:40:24.575Z,11.59
2023-11-03T10:42:53.420Z,11.55
2023-11-03T10:45:22.991Z,11.45
2023-11-03T10:48:02.413Z,11.40
2023-11-03T10:50:34.786Z,11.32
2023-11-03T10:53:15.224Z,11.33
2023-11-03T10:55:51.756Z,11.25
2023-11-03T10:58:19.570Z,11.27
2023-11-03T11:00:58.475Z,11.24
2023-11-03T11:03:31.678Z,11.10
2023-11-03T11:06:06.171Z,11.18
2023-11-03T11:08:36.670Z,11.13
2023-11-03T11:11:06.285Z,11.08
2023-11-03T11:13:34.210Z,11.09
2023-11-03T11:16:07.035Z,11.10
2023-11-03T11:18:41.435Z,11.03
2023-11-03T11:21:12.530Z,11.01
2023-11-03T11:23:44.770Z,10.97
2023-11-03T11:26:31.611Z,10.98
2023-11-03T11:29:03.506Z,10.99
2023-11-03T11:31:41.346Z,11.03
2023-11-03T11:34:11.962Z,11.03
2023-11-03T11:36:41.235Z,11.05
2023-11-03T11:39:14.809Z,11.12
2023-11-03T11:41:50.427Z,11.06
2023-11-03T11:44:20.373Z,11.10
2023-11-03T11:46:55.058Z,11.18
2023-11-03T11:49:24.905Z,11.21
2023-11-03T11:51:53.532Z,11.26
2023-11-03T11:54:21.964Z,11.29
2023-11-03T11:56:51.658Z,11.26
2023-11-03T11:59:21.201Z,11.20
2023-11-03T12:01:50.280Z,11.20
2023-11-03T12:04:19.504Z,11.15
2023-11-03T12:06:48.740Z,11.14
2023-11-03T12:09:18.004Z,11.08
2023-11-03T12:11:46.364Z,11.03
2023-11-03T12:14:15.645Z,11.07
2023-11-03T12:16:43.497Z,11.11
2023-11-03T12:19:16.503Z,11.17
2023-11-03T12:21:44.687Z,11.26
2023-11-03T12:24:14.405Z,11.26
2023-11-03T12:26:42.265Z,11.13
2023-11-03T12:29:32.009Z,11.03
2023-11-03T12:32:02.056Z,10.98
2023-11-03T12:34:31.786Z,10.90
2023-11-03T12:37:00.791Z,10.88
2023-11-03T12:39:29.188Z,10.86
2023-11-03T12:42:05.833Z,10.81
2023-11-03T12:44:50.372Z,10.72
2023-11-03T12:47:38.694Z,10.73
2023-11-03T12:50:11.430Z,10.75
2023-11-03T12:52:39.275Z,10.65
2023-11-03T12:55:07.740Z,10.73
2023-11-03T12:57:36.060Z,10.70
2023-11-03T13:00:08.779Z,10.80
2023-11-03T13:02:37.837Z,10.81
2023-11-03T13:05:06.233Z,10.91
2023-11-03T13:07:34.193Z,10.84
2023-11-03T13:10:01.874Z,10.93
2023-11-03T13:12:29.475Z,10.89
2023-11-03T13:14:57.111Z,10.93
2023-11-03T13:17:26.096Z,10.91
2023-11-03T13:19:55.108Z,10.91
2023-11-03T13:22:22.796Z,10.91
2023-11-03T13:24:50.587Z,10.87
2023-11-03T13:27:18.417Z,10.87
2023-11-03T13:29:46.023Z,10.90
2023-11-03T13:32:14.705Z,10.97
2023-11-03T13:34:43.940Z,11.06
2023-11-03T13:37:12.972Z,11.12
2023-11-03T13:39:40.902Z,11.16
2023-11-03T13:42:09.245Z,11.18
2023-11-03T13:44:38.419Z,11.24
2023-11-03T13:47:06.496Z,11.26
2023-11-03T13:49:36.998Z,11.31
2023-11-03T13:52:08.582Z,11.28
2023-11-03T13:54:37.214Z,11.29
2023-11-03T13:57:07.797Z,11.30
2023-11-03T13:59:35.968Z,11.34
2023-11-03T14:02:05.237Z,11.29
2023-11-03T14:04:33.209Z,11.31
2023-11-03T14:07:00.967Z,11.33
2023-11-03T14:09:29.965Z,11.26
2023-11-03T14:11:58.133Z,11.28
2023-11-03T14:14:26.780Z,11.31
2023-11-03T14:16:54.708Z,11.31
2023-11-03T14:19:22.393Z,11.28
2023-11-03T14:21:50.857Z,11.33
2023-11-03T14:24:18.479Z,11.33
2023-11-03T14:26:48.535Z,11.42
2023-11-03T14:29:17.074Z,11.49
2023-11-03T14:31:45.066Z,11.56
2023-11-03T14:34:14.924Z,11.57
2023-11-03T14:36:45.786Z,11.52
2023-11-03T14:39:15.519Z,11.47
2023-11-03T14:41:45.664Z,11.37
2023-11-03T14:44:17.762Z,11.25
2023-11-03T14:46:46.355Z,11.14
2023-11-03T14:49:14.746Z,11.09
2023-11-03T14:51:42.100Z,10.97
2023-11-03T14:54:10.832Z,10.97
2023-11-03T14:56:38.664Z,10.90
2023-11-03T14:59:06.313Z,10.92
2023-11-03T15:01:35.533Z,10.89
2023-11-03T15:04:05.485Z,10.86
2023-11-03T15:06:34.015Z,10.83
2023-11-03T15:09:02.052Z,10.84
2023-11-03T15:11:30.186Z,10.80
2023-11-03T15:14:00.252Z,10.78
2023-11-03T15:16:30.362Z,10.74
2023-11-03T15:19:00.601Z,10.62
2023-11-03T15:21:28.424Z,10.57
2023-11-03T15:23:56.042Z,10.48
2023-11-03T15:26:24.187Z,10.44
2023-11-03T15:28:52.188Z,10.35
2023-11-03T15:31:19.843Z,10.31
2023-11-03T15:33:50.509Z,10.19
2023-11-03T15:36:20.212Z,10.12
2023-11-03T15:38:48.239Z,10.04
2023-11-03T15:41:16.006Z,9.97
2023-11-03T15:43:44.740Z,9.93
2023-11-03T15:46:12.362Z,9.87
2023-11-03T15:48:40.659Z,9.82
2023-11-03T15:51:10.255Z,9.75
2023-11-03T15:53:39.261Z,9.73
2023-11-03T15:56:13.251Z,9.66
2023-11-03T15:58:41.472Z,9.64
2023-11-03T16:01:09.303Z,9.63
2023-11-03T16:03:39.805Z,9.60
2023-11-03T16:06:08.192Z,9.57
2023-11-03T16:08:37.427Z,9.54
2023-11-03T16:11:06.765Z,9.51
2023-11-03T16:13:34.499Z,9.49
2023-11-03T16:16:02.224Z,9.43
2023-11-03T16:18:30.076Z,9.38
2023-11-03T16:20:57.765Z,9.33
2023-11-03T16:23:25.404Z,9.30
2023-11-03T16:25:53.079Z,9.27
2023-11-03T16:28:22.092Z,9.27
2023-11-03T16:30:49.839Z,9.26
2023-11-03T16:33:17.573Z,9.29
2023-11-03T16:35:45.321Z,9.32
2023-11-03T16:38:16.069Z,9.35
2023-11-03T16:40:44.741Z,9.41
2023-11-03T16:43:12.567Z,9.46
2023-11-03T16:45:42.329Z,9.46
2023-11-03T16:48:20.200Z,9.50
2023-11-03T16:50:52.289Z,9.54
2023-11-03T16:53:20.023Z,9.58
2023-11-03T16:55:51.525Z,9.59
2023-11-03T16:58:19.690Z,9.64
2023-11-03T17:00:50.783Z,9.67
2023-11-03T17:03:19.020Z,9.70
2023-11-03T17:05:46.766Z,9.72
2023-11-03T17:08:14.557Z,9.76
2023-11-03T17:10:42.178Z,9.76
2023-11-03T17:13:09.901Z,9.81
2023-11-03T17:15:37.780Z,9.82
2023-11-03T17:18:07.036Z,9.83
2023-11-03T17:20:34.937Z,9.84
2023-11-03T17:23:04.024Z,9.86
2023-11-03T17:25:31.925Z,9.86
2023-11-03T17:27:59.859Z,9.87
2023-11-03T17:30:28.551Z,9.88
2023-11-03T17:32:58.138Z,9.89
2023-11-03T17:35:27.602Z,9.88
2023-11-03T17:37:58.326Z,9.87
2023-11-03T17:40:28.249Z,9.81
2023-11-03T17:42:59.117Z,9.80
2023-11-03T17:45:27.317Z,9.79
2023-11-03T17:47:55.243Z,9.78
2023-11-03T17:50:23.348Z,9.72
2023-11-03T17:52:54.583Z,9.69
2023-11-03T17:55:24.326Z,9.63
2023-11-03T17:57:53.393Z,9.55
2023-11-03T18:00:24.402Z,9.48
2023-11-03T18:02:53.421Z,9.41
2023-11-03T18:05:21.511Z,9.37
2023-11-03T18:07:49.273Z,9.30
2023-11-03T18:10:18.575Z,9.26
2023-11-03T18:12:46.325Z,9.20
2023-11-03T18:15:14.291Z,9.15
2023-11-03T18:17:42.809Z,9.08
2023-11-03T18:20:13.752Z,9.02
2023-11-03T18:22:42.103Z,8.95
2023-11-03T18:25:11.272Z,8.86
2023-11-03T18:27:41.354Z,8.79
2023-11-03T18:30:12.090Z,8.76
2023-11-03T18:32:41.094Z,8.71
2023-11-03T18:35:11.613Z,8.64
2023-11-03T18:37:40.476Z,8.59
2023-11-03T18:40:13.504Z,8.56
2023-11-03T18:42:43.388Z,8.52
2023-11-03T18:45:12.231Z,8.47
2023-11-03T18:47:40.424Z,8.45
2023-11-03T18:52:41.431Z,8.44
2023-11-03T18:56:05.403Z,8.45
2023-11-03T19:07:09.674Z,8.43
2023-11-03T19:08:23.926Z,8.39
2023-11-03T19:10:52.092Z,8.34
2023-11-03T19:13:21.681Z,8.33
2023-11-03T19:15:51.745Z,8.31
2023-11-03T19:18:19.741Z,8.31
2023-11-03T19:20:47.678Z,8.29
2023-11-03T19:23:16.109Z,8.27
2023-11-03T19:25:44.155Z,8.26
2023-11-03T19:28:14.021Z,8.24
2023-11-03T19:30:44.345Z,8.24
2023-11-03T19:33:13.780Z,8.23
2023-11-03T19:35:49.646Z,8.23
2023-11-03T19:38:20.679Z,8.22
2023-11-03T19:40:48.948Z,8.20
2023-11-03T19:43:16.657Z,8.19
2023-11-03T19:45:45.880Z,8.16
2023-11-03T19:48:14.396Z,8.14
2023-11-03T19:50:42.322Z,8.13
2023-11-03T19:53:09.962Z,8.11
2023-11-03T19:55:37.907Z,8.12
2023-11-03T19:58:05.671Z,8.12
2023-11-03T20:00:34.652Z,8.14
2023-11-03T20:03:04.336Z,8.19
2023-11-03T20:05:32.206Z,8.27
2023-11-03T20:07:59.845Z,8.36
2023-11-03T20:10:27.669Z,8.44
2023-11-03T20:12:55.571Z,8.54
2023-11-03T20:15:23.250Z,8.60
2023-11-03T20:17:51.821Z,8.68
2023-11-03T20:20:22.914Z,8.73
2023-11-03T20:22:51.285Z,8.82
2023-11-03T20:25:18.952Z,8.87
2023-11-03T20:27:46.741Z,8.91
2023-11-03T20:30:15.817Z,8.92
2023-11-03T20:32:44.099Z,8.95
2023-11-03T20:35:11.825Z,8.97
2023-11-03T20:37:40.805Z,9.00
2023-11-03T20:40:10.386Z,9.00
2023-11-03T20:42:38.356Z,9.02
2023-11-03T20:45:07.168Z,9.03
2023-11-03T20:47:34.965Z,9.05
2023-11-03T20:50:02.850Z,9.07
2023-11-03T20:52:34.503Z,9.07
2023-11-03T20:55:04.768Z,9.09
2023-11-03T20:57:32.503Z,9.10
2023-11-03T21:00:00.399Z,9.10
2023-11-03T21:02:28.101Z,9.11
2023-11-03T21:04:56.216Z,9.10
2023-11-03T21:07:23.957Z,9.11
2023-11-03T21:09:52.707Z,9.11
2023-11-03T21:12:21.855Z,9.11
2023-11-03T21:14:49.529Z,9.08
2023-11-03T21:17:18.845Z,9.05
2023-11-03T21:19:46.492Z,9.03
2023-11-03T21:22:15.474Z,9.02
2023-11-03T21:24:43.143Z,9.00
2023-11-03T21:27:10.963Z,8.97
2023-11-03T21:29:41.751Z,8.97
2023-11-03T21:32:09.591Z,8.93
2023-11-03T21:34:37.975Z,8.90
2023-11-03T21:37:06.417Z,8.90
2023-11-03T21:39:34.262Z,8.87
2023-11-03T21:42:01.912Z,8.87
2023-11-03T21:44:30.596Z,8.85
2023-11-03T21:47:00.281Z,8.84
2023-11-03T21:49:28.010Z,8.82
2023-11-03T21:51:55.659Z,8.79
2023-11-03T21:54:23.290Z,8.80
2023-11-03T21:56:50.999Z,8.79
2023-11-03T21:59:18.660Z,8.80
2023-11-03T22:01:46.446Z,8.78
2023-11-03T22:04:16.064Z,8.77
2023-11-03T22:06:44.054Z,8.76
2023-11-03T22:09:13.180Z,8.75
2023-11-03T22:11:41.168Z,8.74
2023-11-03T22:14:09.227Z,8.75
2023-11-03T22:16:37.035Z,8.75
2023-11-03T22:19:04.949Z,8.73
2023-11-03T22:21:34.380Z,8.76
2023-11-03T22:24:04.898Z,8.76
2023-11-03T22:26:39.588Z,8.74
2023-11-03T22:29:11.692Z,8.77
2023-11-03T22:31:48.053Z,8.75
2023-11-03T22:34:16.496Z,8.76
2023-11-03T22:36:46.201Z,8.75
2023-11-03T22:39:18.898Z,8.74
2023-11-03T22:41:46.892Z,8.74
2023-11-03T22:44:15.220Z,8.75
2023-11-03T22:46:43.254Z,8.72
2023-11-03T22:49:11.034Z,8.73
2023-11-03T22:51:39.029Z,8.72
2023-11-03T22:54:08.392Z,8.71
2023-11-03T22:56:36.010Z,8.70
2023-11-03T22:59:03.670Z,8.69
2023-11-03T23:01:31.258Z,8.68
2023-11-03T23:03:58.924Z,8.66
2023-11-03T23:06:26.914Z,8.63
2023-11-03T23:08:54.613Z,8.62
2023-11-03T23:11:25.013Z,8.65
2023-11-03T23:13:52.701Z,8.65
2023-11-03T23:16:20.341Z,8.65
2023-11-03T23:18:48.162Z,8.65
2023-11-03T23:21:15.905Z,8.65
2023-11-03T23:23:47.424Z,8.66
2023-11-03T23:26:15.586Z,8.65
2023-11-03T23:28:44.798Z,8.62
2023-11-03T23:31:12.417Z,8.61
2023-11-03T23:33:40.223Z,8.61
2023-11-03T23:36:08.790Z,8.60
2023-11-03T23:38:36.372Z,8.58
2023-11-03T23:41:04.465Z,8.56
2023-11-03T23:43:32.190Z,8.52
2023-11-03T23:46:04.793Z,8.48
2023-11-03T23:48:33.057Z,8.43
2023-11-03T23:51:01.470Z,8.39
2023-11-03T23:53:29.104Z,8.38
2023-11-03T23:55:56.796Z,8.34
2023-11-03T23:58:24.414Z,8.28
